sensor_id;sensor_type;location;lat;lon;timestamp;pressure;altitude;pressure_sealevel;temperature;humidity
70302;BME280;57706;56.326;43.882;2023-04-27T00:00:46;99650.53;;;12.69;80.39
70302;BME280;57706;56.326;43.882;2023-04-27T00:03:12;99650.72;;;12.67;80.49
70302;BME280;57706;56.326;43.882;2023-04-27T00:05:38;99660.63;;;12.65;80.49
70302;BME280;57706;56.326;43.882;2023-04-27T00:08:05;99661.59;;;12.92;79.44
70302;BME280;57706;56.326;43.882;2023-04-27T00:10:31;99670.88;;;12.82;79.59
70302;BME280;57706;56.326;43.882;2023-04-27T00:12:57;99674.66;;;12.72;79.88
70302;BME280;57706;56.326;43.882;2023-04-27T00:15:23;99682.78;;;12.71;79.98
70302;BME280;57706;56.326;43.882;2023-04-27T00:17:50;99679.69;;;12.67;79.88
70302;BME280;57706;56.326;43.882;2023-04-27T00:20:16;99676.31;;;12.80;79.57
70302;BME280;57706;56.326;43.882;2023-04-27T00:22:43;99675.56;;;12.86;79.01
70302;BME280;57706;56.326;43.882;2023-04-27T00:25:10;99685.00;;;12.74;79.65
70302;BME280;57706;56.326;43.882;2023-04-27T00:27:36;99681.28;;;12.61;80.30
70302;BME280;57706;56.326;43.882;2023-04-27T00:30:03;99680.91;;;12.64;79.91
70302;BME280;57706;56.326;43.882;2023-04-27T00:32:33;99686.97;;;12.58;80.41
70302;BME280;57706;56.326;43.882;2023-04-27T00:34:59;99686.16;;;12.64;79.20
70302;BME280;57706;56.326;43.882;2023-04-27T00:37:25;99688.19;;;12.62;79.25
70302;BME280;57706;56.326;43.882;2023-04-27T00:39:52;99694.16;;;12.78;78.77
70302;BME280;57706;56.326;43.882;2023-04-27T00:42:17;99704.78;;;12.56;79.46
70302;BME280;57706;56.326;43.882;2023-04-27T00:44:45;99699.50;;;12.56;79.17
70302;BME280;57706;56.326;43.882;2023-04-27T00:47:12;99691.31;;;12.44;80.15
70302;BME280;57706;56.326;43.882;2023-04-27T00:49:39;99697.13;;;12.61;79.26
70302;BME280;57706;56.326;43.882;2023-04-27T00:52:06;99696.53;;;12.66;78.90
70302;BME280;57706;56.326;43.882;2023-04-27T00:54:32;99694.72;;;12.66;79.01
70302;BME280;57706;56.326;43.882;2023-04-27T00:56:59;99700.78;;;12.67;78.43
70302;BME280;57706;56.326;43.882;2023-04-27T00:59:25;99703.50;;;12.45;79.64
70302;BME280;57706;56.326;43.882;2023-04-27T01:01:52;99704.97;;;12.26;80.53
70302;BME280;57706;56.326;43.882;2023-04-27T01:04:19;99698.38;;;12.37;80.06
70302;BME280;57706;56.326;43.882;2023-04-27T01:06:46;99697.41;;;12.45;79.71
70302;BME280;57706;56.326;43.882;2023-04-27T01:09:12;99701.91;;;12.51;79.41
70302;BME280;57706;56.326;43.882;2023-04-27T01:11:38;99699.03;;;12.46;79.43
70302;BME280;57706;56.326;43.882;2023-04-27T01:14:06;99702.84;;;12.43;79.66
70302;BME280;57706;56.326;43.882;2023-04-27T01:16:32;99709.81;;;12.22;80.59
70302;BME280;57706;56.326;43.882;2023-04-27T01:18:58;99705.19;;;12.31;80.00
70302;BME280;57706;56.326;43.882;2023-04-27T01:21:25;99707.47;;;12.34;80.25
70302;BME280;57706;56.326;43.882;2023-04-27T01:23:51;99702.69;;;12.45;79.52
70302;BME280;57706;56.326;43.882;2023-04-27T01:26:17;99709.09;;;12.35;79.83
70302;BME280;57706;56.326;43.882;2023-04-27T01:28:43;99712.66;;;12.28;80.36
70302;BME280;57706;56.326;43.882;2023-04-27T01:31:10;99707.69;;;12.39;79.89
70302;BME280;57706;56.326;43.882;2023-04-27T01:33:37;99709.06;;;12.29;80.25
70302;BME280;57706;56.326;43.882;2023-04-27T01:36:03;99715.56;;;12.33;80.31
70302;BME280;57706;56.326;43.882;2023-04-27T01:38:31;99726.91;;;12.33;80.11
70302;BME280;57706;56.326;43.882;2023-04-27T01:40:57;99719.38;;;12.30;80.13
70302;BME280;57706;56.326;43.882;2023-04-27T01:43:29;99725.66;;;12.29;80.37
70302;BME280;57706;56.326;43.882;2023-04-27T01:46:04;99721.97;;;12.23;80.43
70302;BME280;57706;56.326;43.882;2023-04-27T01:48:30;99736.72;;;12.18;80.44
70302;BME280;57706;56.326;43.882;2023-04-27T01:50:56;99728.53;;;12.34;79.67
70302;BME280;57706;56.326;43.882;2023-04-27T01:53:22;99738.97;;;12.21;80.25
70302;BME280;57706;56.326;43.882;2023-04-27T01:55:48;99740.19;;;12.47;79.04
70302;BME280;57706;56.326;43.882;2023-04-27T01:58:14;99729.16;;;12.36;79.70
70302;BME280;57706;56.326;43.882;2023-04-27T02:00:40;99740.31;;;12.38;79.80
70302;BME280;57706;56.326;43.882;2023-04-27T02:03:06;99734.69;;;12.42;79.53
70302;BME280;57706;56.326;43.882;2023-04-27T02:05:32;99744.34;;;12.34;79.58
70302;BME280;57706;56.326;43.882;2023-04-27T02:07:57;99753.28;;;12.33;79.83
70302;BME280;57706;56.326;43.882;2023-04-27T02:10:23;99759.78;;;12.37;79.39
70302;BME280;57706;56.326;43.882;2023-04-27T02:12:55;99755.91;;;12.33;79.93
70302;BME280;57706;56.326;43.882;2023-04-27T02:15:22;99746.78;;;12.36;79.85
70302;BME280;57706;56.326;43.882;2023-04-27T02:17:48;99748.47;;;12.44;79.39
70302;BME280;57706;56.326;43.882;2023-04-27T02:20:14;99758.09;;;12.30;79.81
70302;BME280;57706;56.326;43.882;2023-04-27T02:22:41;99757.44;;;12.28;79.82
70302;BME280;57706;56.326;43.882;2023-04-27T02:25:12;99759.81;;;12.44;78.90
70302;BME280;57706;56.326;43.882;2023-04-27T02:27:40;99760.53;;;12.31;79.55
70302;BME280;57706;56.326;43.882;2023-04-27T02:30:07;99751.72;;;12.46;78.88
70302;BME280;57706;56.326;43.882;2023-04-27T02:32:34;99765.97;;;12.51;78.54
70302;BME280;57706;56.326;43.882;2023-04-27T02:35:00;99766.31;;;12.42;79.09
70302;BME280;57706;56.326;43.882;2023-04-27T02:37:31;99772.06;;;12.52;78.33
70302;BME280;57706;56.326;43.882;2023-04-27T02:39:57;99765.53;;;12.48;78.59
70302;BME280;57706;56.326;43.882;2023-04-27T02:42:23;99775.19;;;12.41;78.98
70302;BME280;57706;56.326;43.882;2023-04-27T02:44:49;99778.34;;;12.29;79.32
70302;BME280;57706;56.326;43.882;2023-04-27T02:47:15;99775.19;;;12.41;79.23
70302;BME280;57706;56.326;43.882;2023-04-27T02:49:41;99782.13;;;12.42;78.98
70302;BME280;57706;56.326;43.882;2023-04-27T02:52:08;99785.09;;;12.60;78.24
70302;BME280;57706;56.326;43.882;2023-04-27T02:54:34;99789.50;;;12.53;78.48
70302;BME280;57706;56.326;43.882;2023-04-27T02:57:00;99790.06;;;12.70;77.61
70302;BME280;57706;56.326;43.882;2023-04-27T02:59:27;99799.50;;;12.86;76.83
70302;BME280;57706;56.326;43.882;2023-04-27T03:01:53;99797.19;;;12.76;76.96
70302;BME280;57706;56.326;43.882;2023-04-27T03:04:19;99803.03;;;12.72;77.74
70302;BME280;57706;56.326;43.882;2023-04-27T03:06:45;99803.50;;;12.82;76.74
70302;BME280;57706;56.326;43.882;2023-04-27T03:09:11;99801.13;;;12.87;76.68
70302;BME280;57706;56.326;43.882;2023-04-27T03:11:38;99813.72;;;12.92;76.23
70302;BME280;57706;56.326;43.882;2023-04-27T03:14:04;99821.13;;;12.75;76.90
70302;BME280;57706;56.326;43.882;2023-04-27T03:16:31;99818.81;;;12.93;76.03
70302;BME280;57706;56.326;43.882;2023-04-27T03:18:57;99824.25;;;12.85;76.83
70302;BME280;57706;56.326;43.882;2023-04-27T03:21:23;99825.88;;;12.86;76.95
70302;BME280;57706;56.326;43.882;2023-04-27T03:23:50;99822.69;;;12.98;76.13
70302;BME280;57706;56.326;43.882;2023-04-27T03:26:15;99826.13;;;12.91;76.12
70302;BME280;57706;56.326;43.882;2023-04-27T03:28:41;99833.75;;;13.08;75.74
70302;BME280;57706;56.326;43.882;2023-04-27T03:31:12;99829.22;;;13.02;76.10
70302;BME280;57706;56.326;43.882;2023-04-27T03:33:39;99835.38;;;13.09;75.60
70302;BME280;57706;56.326;43.882;2023-04-27T03:36:06;99838.31;;;13.28;74.83
70302;BME280;57706;56.326;43.882;2023-04-27T03:38:33;99853.69;;;13.17;75.13
70302;BME280;57706;56.326;43.882;2023-04-27T03:40:59;99844.44;;;13.28;74.83
70302;BME280;57706;56.326;43.882;2023-04-27T03:43:26;99851.56;;;13.06;75.48
70302;BME280;57706;56.326;43.882;2023-04-27T03:45:52;99858.09;;;13.10;75.39
70302;BME280;57706;56.326;43.882;2023-04-27T03:48:18;99856.97;;;12.98;75.73
70302;BME280;57706;56.326;43.882;2023-04-27T03:50:45;99859.41;;;12.92;76.46
70302;BME280;57706;56.326;43.882;2023-04-27T03:53:12;99865.44;;;12.64;77.10
70302;BME280;57706;56.326;43.882;2023-04-27T03:55:42;99869.66;;;12.80;76.78
70302;BME280;57706;56.326;43.882;2023-04-27T03:58:09;99861.16;;;12.85;76.48
70302;BME280;57706;56.326;43.882;2023-04-27T04:00:37;99859.25;;;13.01;75.51
70302;BME280;57706;56.326;43.882;2023-04-27T04:03:04;99875.94;;;13.08;75.67
70302;BME280;57706;56.326;43.882;2023-04-27T04:05:32;99865.09;;;13.25;74.56
70302;BME280;57706;56.326;43.882;2023-04-27T04:07:58;99869.38;;;13.26;74.74
70302;BME280;57706;56.326;43.882;2023-04-27T04:10:26;99873.78;;;13.47;73.86
70302;BME280;57706;56.326;43.882;2023-04-27T04:12:53;99864.53;;;13.58;72.89
70302;BME280;57706;56.326;43.882;2023-04-27T04:15:18;99875.72;;;13.38;73.24
70302;BME280;57706;56.326;43.882;2023-04-27T04:17:45;99886.69;;;13.35;73.66
70302;BME280;57706;56.326;43.882;2023-04-27T04:20:12;99873.84;;;13.32;74.29
70302;BME280;57706;56.326;43.882;2023-04-27T04:22:38;99875.81;;;13.45;73.24
70302;BME280;57706;56.326;43.882;2023-04-27T04:25:05;99874.06;;;13.59;72.81
70302;BME280;57706;56.326;43.882;2023-04-27T04:27:31;99882.88;;;13.80;72.01
70302;BME280;57706;56.326;43.882;2023-04-27T04:29:58;99882.47;;;13.76;71.97
70302;BME280;57706;56.326;43.882;2023-04-27T04:32:27;99890.19;;;13.42;72.88
70302;BME280;57706;56.326;43.882;2023-04-27T04:34:54;99882.75;;;13.53;73.23
70302;BME280;57706;56.326;43.882;2023-04-27T04:37:22;99880.78;;;13.61;72.81
70302;BME280;57706;56.326;43.882;2023-04-27T04:39:49;99889.78;;;13.81;72.25
70302;BME280;57706;56.326;43.882;2023-04-27T04:42:15;99890.91;;;14.07;71.02
70302;BME280;57706;56.326;43.882;2023-04-27T04:44:42;99898.06;;;14.13;70.48
70302;BME280;57706;56.326;43.882;2023-04-27T04:47:09;99885.91;;;14.25;70.17
70302;BME280;57706;56.326;43.882;2023-04-27T04:49:35;99894.03;;;14.30;69.51
70302;BME280;57706;56.326;43.882;2023-04-27T04:52:01;99906.22;;;14.25;69.92
70302;BME280;57706;56.326;43.882;2023-04-27T04:54:29;99898.94;;;14.34;69.66
70302;BME280;57706;56.326;43.882;2023-04-27T04:56:55;99891.03;;;14.34;69.46
70302;BME280;57706;56.326;43.882;2023-04-27T04:59:24;99891.19;;;14.25;69.60
70302;BME280;57706;56.326;43.882;2023-04-27T05:01:50;99900.16;;;14.38;69.06
70302;BME280;57706;56.326;43.882;2023-04-27T05:04:20;99905.31;;;14.66;67.84
70302;BME280;57706;56.326;43.882;2023-04-27T05:06:47;99910.00;;;14.57;68.40
70302;BME280;57706;56.326;43.882;2023-04-27T05:09:13;99912.22;;;14.61;68.03
70302;BME280;57706;56.326;43.882;2023-04-27T05:11:39;99916.91;;;14.72;67.31
70302;BME280;57706;56.326;43.882;2023-04-27T05:14:05;99920.81;;;14.90;66.42
70302;BME280;57706;56.326;43.882;2023-04-27T05:16:31;99916.78;;;14.94;66.54
70302;BME280;57706;56.326;43.882;2023-04-27T05:18:57;99918.59;;;15.00;65.91
70302;BME280;57706;56.326;43.882;2023-04-27T05:21:23;99930.22;;;14.99;65.78
70302;BME280;57706;56.326;43.882;2023-04-27T05:23:48;99928.16;;;15.01;65.83
70302;BME280;57706;56.326;43.882;2023-04-27T05:26:16;99932.88;;;14.99;65.83
70302;BME280;57706;56.326;43.882;2023-04-27T05:28:42;99928.38;;;14.93;65.53
70302;BME280;57706;56.326;43.882;2023-04-27T05:31:08;99939.34;;;14.83;65.72
70302;BME280;57706;56.326;43.882;2023-04-27T05:33:34;99927.56;;;14.79;66.40
70302;BME280;57706;56.326;43.882;2023-04-27T05:36:00;99946.28;;;14.91;65.64
70302;BME280;57706;56.326;43.882;2023-04-27T05:38:26;99941.56;;;14.79;65.91
70302;BME280;57706;56.326;43.882;2023-04-27T05:40:57;99943.00;;;14.75;66.14
70302;BME280;57706;56.326;43.882;2023-04-27T05:43:24;99951.13;;;14.80;65.50
70302;BME280;57706;56.326;43.882;2023-04-27T05:45:51;99949.91;;;14.76;65.50
70302;BME280;57706;56.326;43.882;2023-04-27T05:48:17;99949.25;;;14.61;66.09
70302;BME280;57706;56.326;43.882;2023-04-27T05:50:44;99946.97;;;14.44;65.61
70302;BME280;57706;56.326;43.882;2023-04-27T05:53:10;99953.44;;;14.35;66.45
70302;BME280;57706;56.326;43.882;2023-04-27T05:55:35;99963.25;;;14.54;66.09
70302;BME280;57706;56.326;43.882;2023-04-27T05:58:02;99954.34;;;14.69;65.27
70302;BME280;57706;56.326;43.882;2023-04-27T06:00:28;99964.53;;;14.72;64.75
70302;BME280;57706;56.326;43.882;2023-04-27T06:02:54;99957.47;;;14.93;64.27
70302;BME280;57706;56.326;43.882;2023-04-27T06:05:20;99958.94;;;15.36;62.91
70302;BME280;57706;56.326;43.882;2023-04-27T06:07:47;99965.56;;;15.86;61.36
70302;BME280;57706;56.326;43.882;2023-04-27T06:10:14;99969.06;;;15.59;61.92
70302;BME280;57706;56.326;43.882;2023-04-27T06:12:41;99975.38;;;15.51;62.23
70302;BME280;57706;56.326;43.882;2023-04-27T06:15:07;99969.69;;;15.61;61.76
70302;BME280;57706;56.326;43.882;2023-04-27T06:17:35;99973.72;;;15.71;61.30
70302;BME280;57706;56.326;43.882;2023-04-27T06:20:01;99986.81;;;15.52;61.50
70302;BME280;57706;56.326;43.882;2023-04-27T06:22:32;99980.47;;;15.66;61.08
70302;BME280;57706;56.326;43.882;2023-04-27T06:24:58;99994.31;;;15.55;60.55
70302;BME280;57706;56.326;43.882;2023-04-27T06:27:24;99986.19;;;15.36;61.00
70302;BME280;57706;56.326;43.882;2023-04-27T06:29:49;100000.25;;;15.57;60.52
70302;BME280;57706;56.326;43.882;2023-04-27T06:32:16;99999.22;;;15.58;60.37
70302;BME280;57706;56.326;43.882;2023-04-27T06:34:42;100008.19;;;15.44;60.39
70302;BME280;57706;56.326;43.882;2023-04-27T06:37:08;100008.38;;;15.08;61.80
70302;BME280;57706;56.326;43.882;2023-04-27T06:39:34;100006.94;;;15.12;62.34
70302;BME280;57706;56.326;43.882;2023-04-27T06:42:01;100014.31;;;15.37;61.54
70302;BME280;57706;56.326;43.882;2023-04-27T06:44:30;100015.50;;;15.35;61.57
70302;BME280;57706;56.326;43.882;2023-04-27T06:46:56;100020.41;;;15.11;62.23
70302;BME280;57706;56.326;43.882;2023-04-27T06:49:22;100018.78;;;15.57;60.67
70302;BME280;57706;56.326;43.882;2023-04-27T06:51:48;100022.84;;;15.80;59.56
70302;BME280;57706;56.326;43.882;2023-04-27T06:54:14;100024.66;;;16.06;59.55
70302;BME280;57706;56.326;43.882;2023-04-27T06:56:40;100016.66;;;16.27;58.95
70302;BME280;57706;56.326;43.882;2023-04-27T06:59:07;100027.28;;;16.13;58.33
70302;BME280;57706;56.326;43.882;2023-04-27T07:01:33;100019.59;;;15.91;58.84
70302;BME280;57706;56.326;43.882;2023-04-27T07:03:59;100028.75;;;15.95;58.97
70302;BME280;57706;56.326;43.882;2023-04-27T07:06:25;100039.97;;;16.04;58.65
70302;BME280;57706;56.326;43.882;2023-04-27T07:08:51;100038.31;;;16.10;58.09
70302;BME280;57706;56.326;43.882;2023-04-27T07:11:17;100039.53;;;15.87;59.34
70302;BME280;57706;56.326;43.882;2023-04-27T07:13:42;100043.63;;;15.83;59.30
70302;BME280;57706;56.326;43.882;2023-04-27T07:16:08;100041.75;;;16.17;58.32
70302;BME280;57706;56.326;43.882;2023-04-27T07:18:34;100045.66;;;15.94;59.40
70302;BME280;57706;56.326;43.882;2023-04-27T07:21:00;100052.06;;;16.39;58.44
70302;BME280;57706;56.326;43.882;2023-04-27T07:23:27;100049.41;;;16.91;56.97
70302;BME280;57706;56.326;43.882;2023-04-27T07:25:52;100042.03;;;17.32;55.64
70302;BME280;57706;56.326;43.882;2023-04-27T07:28:19;100050.53;;;17.16;55.62
70302;BME280;57706;56.326;43.882;2023-04-27T07:30:45;100069.50;;;16.74;56.56
70302;BME280;57706;56.326;43.882;2023-04-27T07:33:11;100060.94;;;16.72;56.88
70302;BME280;57706;56.326;43.882;2023-04-27T07:35:37;100075.72;;;16.47;57.23
70302;BME280;57706;56.326;43.882;2023-04-27T07:38:03;100071.28;;;16.34;57.93
70302;BME280;57706;56.326;43.882;2023-04-27T07:40:29;100092.72;;;16.19;58.48
70302;BME280;57706;56.326;43.882;2023-04-27T07:42:57;100075.00;;;15.73;59.87
70302;BME280;57706;56.326;43.882;2023-04-27T07:45:23;100078.22;;;16.29;58.72
70302;BME280;57706;56.326;43.882;2023-04-27T07:47:57;100082.28;;;16.90;57.17
70302;BME280;57706;56.326;43.882;2023-04-27T07:50:28;100102.88;;;17.41;55.73
70302;BME280;57706;56.326;43.882;2023-04-27T07:52:55;100093.78;;;17.23;56.21
70302;BME280;57706;56.326;43.882;2023-04-27T07:55:21;100099.84;;;17.30;56.27
70302;BME280;57706;56.326;43.882;2023-04-27T07:57:54;100105.75;;;18.34;53.54
70302;BME280;57706;56.326;43.882;2023-04-27T08:00:22;100104.00;;;18.65;52.59
70302;BME280;57706;56.326;43.882;2023-04-27T08:02:49;100100.91;;;18.50;52.46
70302;BME280;57706;56.326;43.882;2023-04-27T08:05:15;100097.78;;;17.90;54.04
70302;BME280;57706;56.326;43.882;2023-04-27T08:07:41;100107.16;;;17.93;54.02
70302;BME280;57706;56.326;43.882;2023-04-27T08:10:07;100114.91;;;18.76;52.05
70302;BME280;57706;56.326;43.882;2023-04-27T08:12:33;100108.88;;;18.99;51.44
70302;BME280;57706;56.326;43.882;2023-04-27T08:14:59;100112.41;;;18.06;53.49
70302;BME280;57706;56.326;43.882;2023-04-27T08:17:26;100118.28;;;18.52;53.25
70302;BME280;57706;56.326;43.882;2023-04-27T08:19:52;100121.28;;;18.37;54.87
70302;BME280;57706;56.326;43.882;2023-04-27T08:22:18;100129.81;;;18.95;54.47
70302;BME280;57706;56.326;43.882;2023-04-27T08:24:44;100126.06;;;20.36;50.46
70302;BME280;57706;56.326;43.882;2023-04-27T08:27:10;100128.25;;;20.27;50.31
70302;BME280;57706;56.326;43.882;2023-04-27T08:29:35;100124.81;;;20.15;50.62
70302;BME280;57706;56.326;43.882;2023-04-27T08:32:02;100134.97;;;22.88;44.51
70302;BME280;57706;56.326;43.882;2023-04-27T08:34:29;100124.81;;;23.78;42.20
70302;BME280;57706;56.326;43.882;2023-04-27T08:36:56;100130.34;;;23.61;41.76
70302;BME280;57706;56.326;43.882;2023-04-27T08:39:23;100133.06;;;22.83;43.20
70302;BME280;57706;56.326;43.882;2023-04-27T08:41:49;100150.19;;;21.52;46.23
70302;BME280;57706;56.326;43.882;2023-04-27T08:44:14;100136.94;;;20.58;48.25
70302;BME280;57706;56.326;43.882;2023-04-27T08:46:40;100138.16;;;20.27;49.89
70302;BME280;57706;56.326;43.882;2023-04-27T08:49:06;100139.97;;;20.50;48.89
70302;BME280;57706;56.326;43.882;2023-04-27T08:51:32;100146.53;;;22.89;43.40
70302;BME280;57706;56.326;43.882;2023-04-27T08:53:59;100136.16;;;22.31;43.92
70302;BME280;57706;56.326;43.882;2023-04-27T08:56:27;100131.88;;;24.91;38.91
70302;BME280;57706;56.326;43.882;2023-04-27T08:58:54;100126.63;;;24.64;39.20
70302;BME280;57706;56.326;43.882;2023-04-27T09:01:22;100131.72;;;23.69;40.41
70302;BME280;57706;56.326;43.882;2023-04-27T09:03:54;100132.66;;;23.52;40.27
70302;BME280;57706;56.326;43.882;2023-04-27T09:06:47;100133.94;;;26.50;34.63
70302;BME280;57706;56.326;43.882;2023-04-27T09:09:21;100131.91;;;25.07;36.62
70302;BME280;57706;56.326;43.882;2023-04-27T09:11:48;100138.09;;;22.18;42.15
70302;BME280;57706;56.326;43.882;2023-04-27T09:14:16;100138.16;;;20.27;46.92
70302;BME280;57706;56.326;43.882;2023-04-27T09:16:42;100140.59;;;19.62;49.42
70302;BME280;57706;56.326;43.882;2023-04-27T09:19:09;100144.78;;;18.59;52.41
70302;BME280;57706;56.326;43.882;2023-04-27T09:21:35;100153.53;;;18.66;52.56
70302;BME280;57706;56.326;43.882;2023-04-27T09:24:11;100155.66;;;18.13;54.02
70302;BME280;57706;56.326;43.882;2023-04-27T09:26:37;100156.25;;;17.90;54.68
70302;BME280;57706;56.326;43.882;2023-04-27T09:29:03;100163.66;;;18.13;54.94
70302;BME280;57706;56.326;43.882;2023-04-27T09:31:38;100158.25;;;17.95;54.19
70302;BME280;57706;56.326;43.882;2023-04-27T09:34:05;100160.50;;;17.98;54.33
70302;BME280;57706;56.326;43.882;2023-04-27T09:36:30;100166.81;;;17.97;54.28
70302;BME280;57706;56.326;43.882;2023-04-27T09:39:02;100167.41;;;18.87;52.20
70302;BME280;57706;56.326;43.882;2023-04-27T09:41:31;100176.88;;;19.63;48.71
70302;BME280;57706;56.326;43.882;2023-04-27T09:43:58;100162.38;;;20.01;47.70
70302;BME280;57706;56.326;43.882;2023-04-27T09:46:25;100172.34;;;21.82;44.06
70302;BME280;57706;56.326;43.882;2023-04-27T09:48:53;100172.00;;;25.39;37.12
70302;BME280;57706;56.326;43.882;2023-04-27T09:51:23;100165.97;;;24.85;36.90
70302;BME280;57706;56.326;43.882;2023-04-27T09:53:51;100171.22;;;24.65;37.39
70302;BME280;57706;56.326;43.882;2023-04-27T09:56:51;100168.22;;;23.70;38.95
70302;BME280;57706;56.326;43.882;2023-04-27T10:01:48;100184.00;;;22.27;42.13
70302;BME280;57706;56.326;43.882;2023-04-27T10:07:10;100176.69;;;19.76;47.79
70302;BME280;57706;56.326;43.882;2023-04-27T10:09:47;100183.50;;;19.30;48.31
70302;BME280;57706;56.326;43.882;2023-04-27T10:12:18;100169.72;;;19.75;47.68
70302;BME280;57706;56.326;43.882;2023-04-27T10:14:51;100186.22;;;23.42;40.87
70302;BME280;57706;56.326;43.882;2023-04-27T10:17:18;100176.81;;;24.47;36.86
70302;BME280;57706;56.326;43.882;2023-04-27T10:20:04;100186.25;;;26.18;34.86
70302;BME280;57706;56.326;43.882;2023-04-27T10:22:37;100180.38;;;26.00;35.02
70302;BME280;57706;56.326;43.882;2023-04-27T10:25:26;100181.13;;;29.62;29.44
70302;BME280;57706;56.326;43.882;2023-04-27T10:27:55;100184.66;;;30.38;28.15
70302;BME280;57706;56.326;43.882;2023-04-27T10:30:23;100166.69;;;32.65;25.63
70302;BME280;57706;56.326;43.882;2023-04-27T10:32:51;100168.47;;;32.21;25.32
70302;BME280;57706;56.326;43.882;2023-04-27T10:35:18;100164.13;;;31.79;25.26
70302;BME280;57706;56.326;43.882;2023-04-27T10:37:46;100163.84;;;34.37;21.70
70302;BME280;57706;56.326;43.882;2023-04-27T10:40:13;100173.41;;;28.98;27.57
70302;BME280;57706;56.326;43.882;2023-04-27T10:42:43;100174.38;;;25.10;33.45
70302;BME280;57706;56.326;43.882;2023-04-27T10:45:10;100175.72;;;25.12;34.72
70302;BME280;57706;56.326;43.882;2023-04-27T10:47:39;100172.88;;;30.57;27.86
70302;BME280;57706;56.326;43.882;2023-04-27T10:50:08;100176.19;;;30.26;27.57
70302;BME280;57706;56.326;43.882;2023-04-27T10:52:44;100173.84;;;29.05;28.44
70302;BME280;57706;56.326;43.882;2023-04-27T10:55:22;100174.78;;;29.34;28.75
70302;BME280;57706;56.326;43.882;2023-04-27T10:57:50;100159.56;;;36.67;19.90
70302;BME280;57706;56.326;43.882;2023-04-27T11:02:57;100158.19;;;40.15;16.61
70302;BME280;57706;56.326;43.882;2023-04-27T11:05:33;100148.19;;;36.02;20.19
70302;BME280;57706;56.326;43.882;2023-04-27T11:08:18;100150.72;;;31.51;24.70
70302;BME280;57706;56.326;43.882;2023-04-27T11:10:47;100155.22;;;29.37;27.59
70302;BME280;57706;56.326;43.882;2023-04-27T11:13:17;100153.50;;;28.45;28.34
70302;BME280;57706;56.326;43.882;2023-04-27T11:15:45;100167.03;;;26.66;30.65
70302;BME280;57706;56.326;43.882;2023-04-27T11:18:13;100161.25;;;25.39;32.77
70302;BME280;57706;56.326;43.882;2023-04-27T11:20:40;100158.38;;;30.39;25.64
70302;BME280;57706;56.326;43.882;2023-04-27T11:23:07;100161.28;;;35.59;19.76
70302;BME280;57706;56.326;43.882;2023-04-27T11:25:36;100161.78;;;37.95;17.52
70302;BME280;57706;56.326;43.882;2023-04-27T11:28:03;100156.75;;;31.48;23.46
70302;BME280;57706;56.326;43.882;2023-04-27T11:30:29;100167.19;;;30.44;24.84
70302;BME280;57706;56.326;43.882;2023-04-27T11:32:56;100162.69;;;32.72;23.03
70302;BME280;57706;56.326;43.882;2023-04-27T11:35:34;100158.94;;;36.86;17.86
70302;BME280;57706;56.326;43.882;2023-04-27T11:38:00;100159.56;;;39.31;15.88
70302;BME280;57706;56.326;43.882;2023-04-27T11:40:26;100153.03;;;37.73;16.98
70302;BME280;57706;56.326;43.882;2023-04-27T11:42:59;100153.19;;;39.97;15.02
70302;BME280;57706;56.326;43.882;2023-04-27T11:45:28;100150.69;;;42.75;13.52
70302;BME280;57706;56.326;43.882;2023-04-27T11:47:57;100156.75;;;43.94;12.14
70302;BME280;57706;56.326;43.882;2023-04-27T11:50:24;100150.31;;;42.03;12.62
70302;BME280;57706;56.326;43.882;2023-04-27T11:52:51;100166.84;;;39.67;14.27
70302;BME280;57706;56.326;43.882;2023-04-27T11:55:21;100139.16;;;31.37;21.51
70302;BME280;57706;56.326;43.882;2023-04-27T11:57:47;100150.94;;;36.02;17.08
70302;BME280;57706;56.326;43.882;2023-04-27T12:00:13;100133.59;;;36.48;16.56
70302;BME280;57706;56.326;43.882;2023-04-27T12:02:43;100136.88;;;40.35;14.23
70302;BME280;57706;56.326;43.882;2023-04-27T12:05:09;100140.44;;;41.46;12.80
70302;BME280;57706;56.326;43.882;2023-04-27T12:07:37;100151.03;;;39.60;14.08
70302;BME280;57706;56.326;43.882;2023-04-27T12:10:04;100142.75;;;40.68;13.62
70302;BME280;57706;56.326;43.882;2023-04-27T12:12:33;100133.41;;;41.10;13.17
70302;BME280;57706;56.326;43.882;2023-04-27T12:14:58;100148.72;;;40.73;13.13
70302;BME280;57706;56.326;43.882;2023-04-27T12:17:25;100143.69;;;37.74;15.68
70302;BME280;57706;56.326;43.882;2023-04-27T12:19:51;100138.31;;;38.13;15.83
70302;BME280;57706;56.326;43.882;2023-04-27T12:22:17;100146.78;;;35.46;17.26
70302;BME280;57706;56.326;43.882;2023-04-27T12:24:42;100147.19;;;38.78;15.04
70302;BME280;57706;56.326;43.882;2023-04-27T12:27:08;100142.75;;;37.38;15.78
70302;BME280;57706;56.326;43.882;2023-04-27T12:29:34;100144.31;;;37.39;16.19
70302;BME280;57706;56.326;43.882;2023-04-27T12:32:01;100149.75;;;38.16;14.90
70302;BME280;57706;56.326;43.882;2023-04-27T12:34:27;100140.16;;;34.28;17.82
70302;BME280;57706;56.326;43.882;2023-04-27T12:36:53;100152.41;;;28.22;24.60
70302;BME280;57706;56.326;43.882;2023-04-27T12:39:21;100172.41;;;29.79;23.59
70302;BME280;57706;56.326;43.882;2023-04-27T12:41:50;100155.44;;;31.91;21.22
70302;BME280;57706;56.326;43.882;2023-04-27T12:44:17;100161.50;;;33.78;18.93
70302;BME280;57706;56.326;43.882;2023-04-27T12:46:44;100156.50;;;35.81;17.27
70302;BME280;57706;56.326;43.882;2023-04-27T12:49:11;100159.19;;;33.42;19.04
70302;BME280;57706;56.326;43.882;2023-04-27T12:51:40;100157.56;;;33.67;18.84
70302;BME280;57706;56.326;43.882;2023-04-27T12:54:08;100158.50;;;31.98;20.57